sensor_id;sensor_type;location;lat;lon;timestamp;P1;durP1;ratioP1;P2;durP2;ratioP2
12222;SDS011;6174;49.058;8.524;2024-03-02T07:24:04;8.83;;;7.80;;
12222;SDS011;6174;49.058;8.524;2024-03-02T07:26:39;14.07;;;12.67;;
12222;SDS011;6174;49.058;8.524;2024-03-02T12:01:07;2.80;;;2.60;;
12222;SDS011;6174;49.058;8.524;2024-03-02T12:03:36;2.80;;;2.60;;
12222;SDS011;6174;49.058;8.524;2024-03-02T12:06:05;2.50;;;2.30;;
12222;SDS011;6174;49.058;8.524;2024-03-02T12:08:33;2.60;;;2.40;;
12222;SDS011;6174;49.058;8.524;2024-03-02T12:11:02;2.50;;;2.30;;
12222;SDS011;6174;49.058;8.524;2024-03-02T12:13:31;2.70;;;2.50;;
12222;SDS011;6174;49.058;8.524;2024-03-02T12:16:01;2.20;;;2.00;;
12222;SDS011;6174;49.058;8.524;2024-03-02T12:18:30;3.73;;;2.23;;
12222;SDS011;6174;49.058;8.524;2024-03-02T12:21:01;2.60;;;2.40;;
12222;SDS011;6174;49.058;8.524;2024-03-02T12:23:32;2.30;;;2.10;;
12222;SDS011;6174;49.058;8.524;2024-03-02T12:26:15;2.60;;;2.40;;
12222;SDS011;6174;49.058;8.524;2024-03-02T12:29:08;2.40;;;2.20;;
12222;SDS011;6174;49.058;8.524;2024-03-02T12:31:37;2.30;;;2.10;;
12222;SDS011;6174;49.058;8.524;2024-03-02T12:34:07;2.53;;;2.23;;
12222;SDS011;6174;49.058;8.524;2024-03-02T12:36:40;2.40;;;2.20;;
12222;SDS011;6174;49.058;8.524;2024-03-02T12:39:24;3.23;;;2.07;;
12222;SDS011;6174;49.058;8.524;2024-03-02T12:41:55;2.50;;;2.30;;
12222;SDS011;6174;49.058;8.524;2024-03-02T12:44:51;1.70;;;1.60;;
12222;SDS011;6174;49.058;8.524;2024-03-02T12:47:27;1.80;;;1.70;;
12222;SDS011;6174;49.058;8.524;2024-03-02T12:50:18;1.67;;;1.53;;
12222;SDS011;6174;49.058;8.524;2024-03-02T12:52:54;1.70;;;1.60;;
12222;SDS011;6174;49.058;8.524;2024-03-02T12:55:37;1.43;;;1.30;;
12222;SDS011;6174;49.058;8.524;2024-03-02T12:58:22;1.53;;;1.43;;
12222;SDS011;6174;49.058;8.524;2024-03-02T13:01:32;1.60;;;1.50;;
12222;SDS011;6174;49.058;8.524;2024-03-02T13:04:35;1.90;;;1.80;;
12222;SDS011;6174;49.058;8.524;2024-03-02T13:07:42;1.70;;;1.60;;
12222;SDS011;6174;49.058;8.524;2024-03-02T13:10:30;1.57;;;1.47;;
12222;SDS011;6174;49.058;8.524;2024-03-02T13:16:50;1.70;;;1.60;;
12222;SDS011;6174;49.058;8.524;2024-03-02T13:19:53;1.60;;;1.50;;
12222;SDS011;6174;49.058;8.524;2024-03-02T13:22:21;1.63;;;1.50;;
12222;SDS011;6174;49.058;8.524;2024-03-02T13:24:49;1.70;;;1.60;;
12222;SDS011;6174;49.058;8.524;2024-03-02T13:27:17;1.80;;;1.70;;
12222;SDS011;6174;49.058;8.524;2024-03-02T13:29:45;1.60;;;1.33;;
12222;SDS011;6174;49.058;8.524;2024-03-02T13:32:13;1.60;;;1.50;;
12222;SDS011;6174;49.058;8.524;2024-03-02T13:34:40;2.03;;;1.73;;
12222;SDS011;6174;49.058;8.524;2024-03-02T13:37:07;1.50;;;1.40;;
12222;SDS011;6174;49.058;8.524;2024-03-02T13:39:34;1.73;;;1.63;;
12222;SDS011;6174;49.058;8.524;2024-03-02T13:42:06;1.83;;;1.73;;
12222;SDS011;6174;49.058;8.524;2024-03-02T13:44:34;1.70;;;1.60;;
12222;SDS011;6174;49.058;8.524;2024-03-02T13:47:01;2.53;;;2.00;;
12222;SDS011;6174;49.058;8.524;2024-03-02T13:49:29;1.50;;;1.40;;
12222;SDS011;6174;49.058;8.524;2024-03-02T13:51:58;1.63;;;1.53;;
12222;SDS011;6174;49.058;8.524;2024-03-02T13:54:28;1.80;;;1.70;;
12222;SDS011;6174;49.058;8.524;2024-03-02T13:56:55;2.07;;;1.97;;
12222;SDS011;6174;49.058;8.524;2024-03-02T13:59:24;1.80;;;1.70;;
12222;SDS011;6174;49.058;8.524;2024-03-02T14:01:52;1.70;;;1.60;;
12222;SDS011;6174;49.058;8.524;2024-03-02T14:04:19;1.53;;;1.40;;
12222;SDS011;6174;49.058;8.524;2024-03-02T14:06:45;1.77;;;1.33;;
12222;SDS011;6174;49.058;8.524;2024-03-02T14:09:12;1.77;;;1.30;;
12222;SDS011;6174;49.058;8.524;2024-03-02T14:11:39;1.50;;;1.40;;
12222;SDS011;6174;49.058;8.524;2024-03-02T14:14:06;1.40;;;1.30;;
12222;SDS011;6174;49.058;8.524;2024-03-02T14:16:35;1.60;;;1.50;;
12222;SDS011;6174;49.058;8.524;2024-03-02T14:19:01;1.30;;;1.20;;
12222;SDS011;6174;49.058;8.524;2024-03-02T14:21:29;1.53;;;1.43;;
12222;SDS011;6174;49.058;8.524;2024-03-02T14:23:56;1.53;;;1.30;;
12222;SDS011;6174;49.058;8.524;2024-03-02T14:26:23;1.63;;;1.53;;
12222;SDS011;6174;49.058;8.524;2024-03-02T14:28:50;1.20;;;1.17;;
12222;SDS011;6174;49.058;8.524;2024-03-02T14:31:17;1.40;;;1.30;;
12222;SDS011;6174;49.058;8.524;2024-03-02T14:33:46;1.40;;;1.30;;
12222;SDS011;6174;49.058;8.524;2024-03-02T14:36:13;1.53;;;1.43;;
12222;SDS011;6174;49.058;8.524;2024-03-02T14:38:40;1.70;;;1.60;;
12222;SDS011;6174;49.058;8.524;2024-03-02T14:41:06;1.33;;;1.30;;
12222;SDS011;6174;49.058;8.524;2024-03-02T14:43:33;1.50;;;1.40;;
12222;SDS011;6174;49.058;8.524;2024-03-02T14:46:00;1.47;;;1.37;;
12222;SDS011;6174;49.058;8.524;2024-03-02T14:48:27;1.70;;;1.60;;
12222;SDS011;6174;49.058;8.524;2024-03-02T14:50:55;2.23;;;1.30;;
12222;SDS011;6174;49.058;8.524;2024-03-02T14:53:21;1.63;;;1.53;;
12222;SDS011;6174;49.058;8.524;2024-03-02T14:55:48;1.90;;;1.70;;
12222;SDS011;6174;49.058;8.524;2024-03-02T14:58:15;1.83;;;1.50;;
12222;SDS011;6174;49.058;8.524;2024-03-02T15:00:42;1.20;;;1.20;;
12222;SDS011;6174;49.058;8.524;2024-03-02T15:03:08;1.53;;;1.43;;
12222;SDS011;6174;49.058;8.524;2024-03-02T15:05:36;1.90;;;1.80;;
12222;SDS011;6174;49.058;8.524;2024-03-02T15:08:05;1.43;;;1.33;;
12222;SDS011;6174;49.058;8.524;2024-03-02T15:10:32;1.70;;;1.60;;
12222;SDS011;6174;49.058;8.524;2024-03-02T15:12:59;1.60;;;1.50;;
12222;SDS011;6174;49.058;8.524;2024-03-02T15:15:26;1.40;;;1.30;;
12222;SDS011;6174;49.058;8.524;2024-03-02T15:17:53;1.50;;;1.40;;
12222;SDS011;6174;49.058;8.524;2024-03-02T15:20:20;2.30;;;1.60;;
12222;SDS011;6174;49.058;8.524;2024-03-02T15:22:47;1.60;;;1.50;;
12222;SDS011;6174;49.058;8.524;2024-03-02T15:25:15;1.60;;;1.50;;
12222;SDS011;6174;49.058;8.524;2024-03-02T15:27:41;1.77;;;1.60;;
12222;SDS011;6174;49.058;8.524;2024-03-02T15:30:08;1.87;;;1.77;;
12222;SDS011;6174;49.058;8.524;2024-03-02T15:32:35;1.87;;;1.70;;
12222;SDS011;6174;49.058;8.524;2024-03-02T15:35:04;2.63;;;1.80;;
12222;SDS011;6174;49.058;8.524;2024-03-02T15:37:31;1.70;;;1.60;;
12222;SDS011;6174;49.058;8.524;2024-03-02T15:39:58;1.80;;;1.70;;
12222;SDS011;6174;49.058;8.524;2024-03-02T15:42:32;2.13;;;1.90;;
12222;SDS011;6174;49.058;8.524;2024-03-02T15:44:59;2.50;;;2.30;;
12222;SDS011;6174;49.058;8.524;2024-03-02T15:47:25;2.23;;;2.07;;
12222;SDS011;6174;49.058;8.524;2024-03-02T15:49:52;2.90;;;2.60;;
12222;SDS011;6174;49.058;8.524;2024-03-02T15:52:19;3.33;;;2.90;;
12222;SDS011;6174;49.058;8.524;2024-03-02T15:54:46;2.83;;;2.63;;
12222;SDS011;6174;49.058;8.524;2024-03-02T15:57:13;4.07;;;3.53;;
12222;SDS011;6174;49.058;8.524;2024-03-02T15:59:42;4.70;;;4.00;;
12222;SDS011;6174;49.058;8.524;2024-03-02T16:02:09;5.07;;;3.70;;
12222;SDS011;6174;49.058;8.524;2024-03-02T16:04:36;4.20;;;3.80;;
12222;SDS011;6174;49.058;8.524;2024-03-02T16:07:02;3.70;;;3.37;;
12222;SDS011;6174;49.058;8.524;2024-03-02T16:09:29;4.03;;;3.53;;
12222;SDS011;6174;49.058;8.524;2024-03-02T16:11:56;4.37;;;3.77;;
12222;SDS011;6174;49.058;8.524;2024-03-02T16:14:23;3.80;;;3.50;;
12222;SDS011;6174;49.058;8.524;2024-03-02T16:16:51;5.43;;;3.90;;
12222;SDS011;6174;49.058;8.524;2024-03-02T16:19:18;4.60;;;4.00;;
12222;SDS011;6174;49.058;8.524;2024-03-02T16:21:44;4.33;;;3.93;;
12222;SDS011;6174;49.058;8.524;2024-03-02T16:24:11;4.60;;;4.20;;
12222;SDS011;6174;49.058;8.524;2024-03-02T16:26:38;4.37;;;3.90;;
12222;SDS011;6174;49.058;8.524;2024-03-02T16:29:04;3.70;;;3.30;;
12222;SDS011;6174;49.058;8.524;2024-03-02T16:31:31;4.40;;;3.90;;
12222;SDS011;6174;49.058;8.524;2024-03-02T16:34:01;4.43;;;4.03;;
12222;SDS011;6174;49.058;8.524;2024-03-02T16:36:28;6.93;;;5.40;;
12222;SDS011;6174;49.058;8.524;2024-03-02T16:38:57;9.90;;;8.57;;
12222;SDS011;6174;49.058;8.524;2024-03-02T16:41:24;11.40;;;10.30;;
12222;SDS011;6174;49.058;8.524;2024-03-02T16:43:54;10.87;;;9.97;;
12222;SDS011;6174;49.058;8.524;2024-03-02T16:46:21;11.50;;;10.37;;
12222;SDS011;6174;49.058;8.524;2024-03-02T16:48:48;11.40;;;10.30;;
12222;SDS011;6174;49.058;8.524;2024-03-02T16:51:16;10.17;;;9.17;;
12222;SDS011;6174;49.058;8.524;2024-03-02T16:53:43;12.73;;;10.47;;
12222;SDS011;6174;49.058;8.524;2024-03-02T16:56:09;12.40;;;11.20;;
12222;SDS011;6174;49.058;8.524;2024-03-02T16:58:36;9.37;;;8.43;;
12222;SDS011;6174;49.058;8.524;2024-03-02T17:01:03;7.80;;;5.73;;
12222;SDS011;6174;49.058;8.524;2024-03-02T17:03:30;6.77;;;5.50;;
12222;SDS011;6174;49.058;8.524;2024-03-02T17:05:57;5.90;;;5.13;;
12222;SDS011;6174;49.058;8.524;2024-03-02T17:08:25;10.17;;;7.13;;
12222;SDS011;6174;49.058;8.524;2024-03-02T17:10:51;7.20;;;6.03;;
12222;SDS011;6174;49.058;8.524;2024-03-02T17:13:18;6.10;;;5.50;;
12222;SDS011;6174;49.058;8.524;2024-03-02T17:15:45;6.37;;;5.63;;
12222;SDS011;6174;49.058;8.524;2024-03-02T17:18:12;4.53;;;4.13;;
12222;SDS011;6174;49.058;8.524;2024-03-02T17:20:38;4.93;;;4.53;;
12222;SDS011;6174;49.058;8.524;2024-03-02T17:23:05;4.37;;;3.70;;
12222;SDS011;6174;49.058;8.524;2024-03-02T17:25:34;4.93;;;3.90;;
12222;SDS011;6174;49.058;8.524;2024-03-02T17:28:19;4.23;;;3.17;;
12222;SDS011;6174;49.058;8.524;2024-03-02T17:30:47;5.20;;;3.30;;
12222;SDS011;6174;49.058;8.524;2024-03-02T17:33:14;6.43;;;3.40;;
12222;SDS011;6174;49.058;8.524;2024-03-02T17:35:41;1.90;;;1.70;;
12222;SDS011;6174;49.058;8.524;2024-03-02T17:38:16;5.27;;;3.67;;
12222;SDS011;6174;49.058;8.524;2024-03-02T17:40:48;1.77;;;1.67;;
12222;SDS011;6174;49.058;8.524;2024-03-02T17:43:16;2.93;;;2.73;;
12222;SDS011;6174;49.058;8.524;2024-03-02T17:45:43;2.70;;;2.50;;
12222;SDS011;6174;49.058;8.524;2024-03-02T17:48:10;3.53;;;3.03;;
12222;SDS011;6174;49.058;8.524;2024-03-02T17:50:37;18.27;;;13.67;;
12222;SDS011;6174;49.058;8.524;2024-03-02T17:53:04;17.80;;;14.80;;
12222;SDS011;6174;49.058;8.524;2024-03-02T17:55:33;11.03;;;9.87;;
12222;SDS011;6174;49.058;8.524;2024-03-02T17:58:02;12.73;;;11.30;;
12222;SDS011;6174;49.058;8.524;2024-03-02T18:00:29;9.80;;;8.90;;
12222;SDS011;6174;49.058;8.524;2024-03-02T18:02:56;15.63;;;13.00;;
12222;SDS011;6174;49.058;8.524;2024-03-02T18:05:24;6.90;;;6.20;;
12222;SDS011;6174;49.058;8.524;2024-03-02T18:07:51;5.97;;;5.37;;
12222;SDS011;6174;49.058;8.524;2024-03-02T18:10:20;4.67;;;4.13;;
12222;SDS011;6174;49.058;8.524;2024-03-02T18:12:47;4.47;;;4.07;;
12222;SDS011;6174;49.058;8.524;2024-03-02T18:15:17;6.70;;;5.77;;
12222;SDS011;6174;49.058;8.524;2024-03-02T18:17:45;5.03;;;4.57;;
12222;SDS011;6174;49.058;8.524;2024-03-02T18:20:13;3.60;;;3.30;;
12222;SDS011;6174;49.058;8.524;2024-03-02T18:22:40;4.63;;;3.70;;
12222;SDS011;6174;49.058;8.524;2024-03-02T18:25:07;4.23;;;3.80;;
12222;SDS011;6174;49.058;8.524;2024-03-02T18:27:35;5.10;;;4.40;;
12222;SDS011;6174;49.058;8.524;2024-03-02T18:30:02;5.77;;;4.47;;
12222;SDS011;6174;49.058;8.524;2024-03-02T18:32:51;4.53;;;4.13;;
12222;SDS011;6174;49.058;8.524;2024-03-02T18:35:17;4.87;;;3.70;;
12222;SDS011;6174;49.058;8.524;2024-03-02T18:37:44;2.77;;;2.57;;
12222;SDS011;6174;49.058;8.524;2024-03-02T18:40:11;3.20;;;2.90;;
12222;SDS011;6174;49.058;8.524;2024-03-02T18:42:39;4.97;;;4.50;;
12222;SDS011;6174;49.058;8.524;2024-03-02T18:45:06;12.63;;;5.43;;
12222;SDS011;6174;49.058;8.524;2024-03-02T18:47:33;4.20;;;3.80;;
12222;SDS011;6174;49.058;8.524;2024-03-02T18:50:04;4.70;;;4.30;;
12222;SDS011;6174;49.058;8.524;2024-03-02T18:52:34;4.03;;;3.50;;
12222;SDS011;6174;49.058;8.524;2024-03-02T18:55:01;3.70;;;2.97;;
12222;SDS011;6174;49.058;8.524;2024-03-02T18:57:29;2.73;;;2.53;;
12222;SDS011;6174;49.058;8.524;2024-03-02T18:59:56;3.13;;;2.77;;
12222;SDS011;6174;49.058;8.524;2024-03-02T19:02:23;4.17;;;3.40;;
12222;SDS011;6174;49.058;8.524;2024-03-02T19:04:50;4.10;;;3.10;;
12222;SDS011;6174;49.058;8.524;2024-03-02T19:07:18;3.13;;;2.73;;
12222;SDS011;6174;49.058;8.524;2024-03-02T19:09:45;4.33;;;3.70;;
12222;SDS011;6174;49.058;8.524;2024-03-02T19:12:15;3.80;;;3.50;;
12222;SDS011;6174;49.058;8.524;2024-03-02T19:14:42;3.10;;;2.90;;
12222;SDS011;6174;49.058;8.524;2024-03-02T19:17:10;3.23;;;2.93;;
12222;SDS011;6174;49.058;8.524;2024-03-02T19:19:37;3.13;;;2.60;;
12222;SDS011;6174;49.058;8.524;2024-03-02T19:22:06;3.00;;;2.70;;
12222;SDS011;6174;49.058;8.524;2024-03-02T19:24:36;3.30;;;3.00;;
12222;SDS011;6174;49.058;8.524;2024-03-02T19:27:03;4.10;;;3.00;;
12222;SDS011;6174;49.058;8.524;2024-03-02T19:29:30;3.23;;;2.93;;
12222;SDS011;6174;49.058;8.524;2024-03-02T19:31:57;3.53;;;3.23;;
12222;SDS011;6174;49.058;8.524;2024-03-02T19:34:24;3.50;;;3.20;;
12222;SDS011;6174;49.058;8.524;2024-03-02T19:36:51;3.90;;;3.43;;
12222;SDS011;6174;49.058;8.524;2024-03-02T19:39:19;4.07;;;3.73;;
12222;SDS011;6174;49.058;8.524;2024-03-02T19:41:52;4.13;;;3.80;;
12222;SDS011;6174;49.058;8.524;2024-03-02T19:44:22;4.93;;;4.47;;
12222;SDS011;6174;49.058;8.524;2024-03-02T19:46:51;4.37;;;3.73;;
12222;SDS011;6174;49.058;8.524;2024-03-02T19:49:18;4.07;;;3.67;;
12222;SDS011;6174;49.058;8.524;2024-03-02T19:51:45;4.30;;;3.90;;
12222;SDS011;6174;49.058;8.524;2024-03-02T19:54:12;4.43;;;4.03;;
12222;SDS011;6174;49.058;8.524;2024-03-02T19:56:39;5.47;;;4.60;;
12222;SDS011;6174;49.058;8.524;2024-03-02T19:59:07;5.23;;;4.73;;
12222;SDS011;6174;49.058;8.524;2024-03-02T20:01:37;5.67;;;5.00;;
12222;SDS011;6174;49.058;8.524;2024-03-02T20:04:06;8.47;;;7.03;;
12222;SDS011;6174;49.058;8.524;2024-03-02T20:06:34;5.90;;;5.30;;
12222;SDS011;6174;49.058;8.524;2024-03-02T20:09:01;6.00;;;5.40;;
12222;SDS011;6174;49.058;8.524;2024-03-02T20:11:30;6.13;;;5.53;;
12222;SDS011;6174;49.058;8.524;2024-03-02T20:13:58;7.07;;;6.37;;
12222;SDS011;6174;49.058;8.524;2024-03-02T20:16:28;7.60;;;6.90;;
12222;SDS011;6174;49.058;8.524;2024-03-02T20:18:56;9.50;;;8.50;;
12222;SDS011;6174;49.058;8.524;2024-03-02T20:21:22;9.73;;;8.53;;
12222;SDS011;6174;49.058;8.524;2024-03-02T20:23:49;9.50;;;8.50;;
12222;SDS011;6174;49.058;8.524;2024-03-02T20:26:17;9.10;;;8.20;;
12222;SDS011;6174;49.058;8.524;2024-03-02T20:28:44;9.90;;;8.90;;
12222;SDS011;6174;49.058;8.524;2024-03-02T20:31:12;11.83;;;9.97;;
12222;SDS011;6174;49.058;8.524;2024-03-02T20:33:41;12.87;;;11.27;;
12222;SDS011;6174;49.058;8.524;2024-03-02T20:36:11;12.77;;;11.20;;
12222;SDS011;6174;49.058;8.524;2024-03-02T20:38:39;12.37;;;10.73;;
12222;SDS011;6174;49.058;8.524;2024-03-02T20:41:06;13.47;;;11.67;;
12222;SDS011;6174;49.058;8.524;2024-03-02T20:43:39;14.13;;;11.73;;
12222;SDS011;6174;49.058;8.524;2024-03-02T20:46:06;12.00;;;10.67;;
12222;SDS011;6174;49.058;8.524;2024-03-02T20:48:33;14.27;;;12.33;;
12222;SDS011;6174;49.058;8.524;2024-03-02T20:51:02;12.97;;;11.63;;
12222;SDS011;6174;49.058;8.524;2024-03-02T20:53:29;13.37;;;12.03;;
12222;SDS011;6174;49.058;8.524;2024-03-02T20:55:56;13.53;;;11.50;;
12222;SDS011;6174;49.058;8.524;2024-03-02T20:58:23;12.90;;;11.70;;
12222;SDS011;6174;49.058;8.524;2024-03-02T21:00:50;13.43;;;11.23;;
12222;SDS011;6174;49.058;8.524;2024-03-02T21:03:17;15.27;;;13.40;;
12222;SDS011;6174;49.058;8.524;2024-03-02T21:05:45;14.83;;;13.27;;
12222;SDS011;6174;49.058;8.524;2024-03-02T21:08:14;13.27;;;11.87;;
12222;SDS011;6174;49.058;8.524;2024-03-02T21:10:41;14.77;;;12.90;;
12222;SDS011;6174;49.058;8.524;2024-03-02T21:13:09;16.00;;;13.93;;
12222;SDS011;6174;49.058;8.524;2024-03-02T21:15:36;15.20;;;12.93;;
12222;SDS011;6174;49.058;8.524;2024-03-02T21:18:04;14.27;;;12.83;;
12222;SDS011;6174;49.058;8.524;2024-03-02T21:20:31;16.57;;;14.27;;
12222;SDS011;6174;49.058;8.524;2024-03-02T21:23:00;16.93;;;14.57;;
12222;SDS011;6174;49.058;8.524;2024-03-02T21:25:29;15.13;;;13.10;;
12222;SDS011;6174;49.058;8.524;2024-03-02T21:27:59;14.10;;;12.50;;
12222;SDS011;6174;49.058;8.524;2024-03-02T21:30:26;13.30;;;12.10;;
12222;SDS011;6174;49.058;8.524;2024-03-02T21:32:55;13.40;;;12.03;;
12222;SDS011;6174;49.058;8.524;2024-03-02T21:35:22;14.80;;;13.23;;
12222;SDS011;6174;49.058;8.524;2024-03-02T21:37:52;14.67;;;13.03;;
12222;SDS011;6174;49.058;8.524;2024-03-02T21:40:19;13.83;;;12.40;;
12222;SDS011;6174;49.058;8.524;2024-03-02T21:42:48;13.77;;;12.37;;
12222;SDS011;6174;49.058;8.524;2024-03-02T21:45:15;14.10;;;12.60;;
12222;SDS011;6174;49.058;8.524;2024-03-02T21:47:42;15.50;;;13.60;;
12222;SDS011;6174;49.058;8.524;2024-03-02T21:50:10;15.27;;;13.77;;
12222;SDS011;6174;49.058;8.524;2024-03-02T21:52:37;16.23;;;14.63;;
12222;SDS011;6174;49.058;8.524;2024-03-02T21:55:04;14.83;;;13.33;;
12222;SDS011;6174;49.058;8.524;2024-03-02T21:57:33;15.70;;;14.17;;
12222;SDS011;6174;49.058;8.524;2024-03-02T22:00:02;14.77;;;13.27;;
12222;SDS011;6174;49.058;8.524;2024-03-02T22:02:29;23.03;;;20.53;;
12222;SDS011;6174;49.058;8.524;2024-03-02T22:04:58;21.30;;;19.10;;
12222;SDS011;6174;49.058;8.524;2024-03-02T22:07:27;15.47;;;13.80;;
12222;SDS011;6174;49.058;8.524;2024-03-02T22:09:54;15.07;;;13.57;;
12222;SDS011;6174;49.058;8.524;2024-03-02T22:12:22;18.47;;;16.37;;
12222;SDS011;6174;49.058;8.524;2024-03-02T22:14:48;15.63;;;14.03;;
12222;SDS011;6174;49.058;8.524;2024-03-02T22:17:17;15.93;;;14.20;;
12222;SDS011;6174;49.058;8.524;2024-03-02T22:19:44;16.13;;;14.57;;
12222;SDS011;6174;49.058;8.524;2024-03-02T22:22:12;14.67;;;13.17;;
12222;SDS011;6174;49.058;8.524;2024-03-02T22:24:40;14.70;;;13.30;;
12222;SDS011;6174;49.058;8.524;2024-03-02T22:27:07;14.43;;;13.03;;
12222;SDS011;6174;49.058;8.524;2024-03-02T22:29:34;13.20;;;11.93;;
12222;SDS011;6174;49.058;8.524;2024-03-02T22:32:01;14.60;;;13.10;;
12222;SDS011;6174;49.058;8.524;2024-03-02T22:34:29;16.43;;;14.70;;
12222;SDS011;6174;49.058;8.524;2024-03-02T22:36:56;19.37;;;17.27;;
12222;SDS011;6174;49.058;8.524;2024-03-02T22:39:23;15.20;;;13.57;;
12222;SDS011;6174;49.058;8.524;2024-03-02T22:41:51;14.53;;;13.07;;
12222;SDS011;6174;49.058;8.524;2024-03-02T22:44:20;14.63;;;13.13;;
12222;SDS011;6174;49.058;8.524;2024-03-02T22:46:46;14.13;;;12.70;;
12222;SDS011;6174;49.058;8.524;2024-03-02T22:49:14;15.03;;;13.50;;
12222;SDS011;6174;49.058;8.524;2024-03-02T22:51:43;15.07;;;13.33;;
12222;SDS011;6174;49.058;8.524;2024-03-02T22:54:10;14.77;;;13.27;;
12222;SDS011;6174;49.058;8.524;2024-03-02T22:56:37;14.40;;;12.77;;
12222;SDS011;6174;49.058;8.524;2024-03-02T22:59:04;14.97;;;12.90;;
12222;SDS011;6174;49.058;8.524;2024-03-02T23:01:31;14.63;;;13.13;;
12222;SDS011;6174;49.058;8.524;2024-03-02T23:03:58;15.20;;;13.43;;
12222;SDS011;6174;49.058;8.524;2024-03-02T23:06:25;14.23;;;12.93;;
12222;SDS011;6174;49.058;8.524;2024-03-02T23:08:53;14.53;;;13.13;;
12222;SDS011;6174;49.058;8.524;2024-03-02T23:11:20;14.80;;;13.30;;
12222;SDS011;6174;49.058;8.524;2024-03-02T23:13:47;15.67;;;14.07;;
12222;SDS011;6174;49.058;8.524;2024-03-02T23:16:14;17.80;;;15.90;;
12222;SDS011;6174;49.058;8.524;2024-03-02T23:18:40;17.43;;;14.97;;
12222;SDS011;6174;49.058;8.524;2024-03-02T23:21:08;16.63;;;14.83;;
12222;SDS011;6174;49.058;8.524;2024-03-02T23:23:35;15.83;;;14.03;;
12222;SDS011;6174;49.058;8.524;2024-03-02T23:26:03;17.17;;;15.37;;
12222;SDS011;6174;49.058;8.524;2024-03-02T23:28:32;16.43;;;14.80;;
